Time;durP1;ratioP1;P1;durP2;ratioP2;P2;SDS_P1;SDS_P2;PMS_P1;PMS_P2;Temp;Humidity;BMP_temperature;BMP_pressure;BME280_temperature;BME280_humidity;BME280_pressure;Samples;Min_cycle;Max_cycle;Signal;HPM_P1;HPM_P2
2023/06/05 00:01:04;;;;;;;7.03;3.50;;;14.20;64.30;;;;;;5000577;28;20518;-88
2023/06/05 00:03:32;;;;;;;8.85;3.40;;;14.30;64.40;;;;;;5016810;28;20054;-88
2023/06/05 00:05:59;;;;;;;7.72;3.08;;;14.20;64.90;;;;;;5016690;28;20037;-88
2023/06/05 00:08:26;;;;;;;7.80;3.05;;;14.00;65.50;;;;;;5000412;28;20070;-88
2023/06/05 00:10:56;;;;;;;7.20;3.22;;;14.00;65.70;;;;;;5000469;28;20046;-88
2023/06/05 00:13:23;;;;;;;6.93;3.23;;;13.90;66.50;;;;;;5016436;28;20076;-88
2023/06/05 00:15:51;;;;;;;7.55;3.22;;;13.80;66.10;;;;;;5016615;28;20057;-88
2023/06/05 00:18:19;;;;;;;7.57;3.15;;;13.80;65.90;;;;;;5016013;28;20046;-87
2023/06/05 00:20:46;;;;;;;7.93;3.13;;;13.80;65.90;;;;;;5016223;28;20042;-87
2023/06/05 00:23:13;;;;;;;7.05;2.80;;;13.80;65.30;;;;;;4999940;28;20042;-88
2023/06/05 00:25:40;;;;;;;7.03;2.80;;;13.80;65.70;;;;;;5015941;28;20041;-88
2023/06/05 00:28:07;;;;;;;8.52;3.45;;;13.80;65.20;;;;;;5016112;28;20042;-87
2023/06/05 00:30:36;;;;;;;8.63;3.67;;;13.90;65.40;;;;;;5015805;28;20038;-87
2023/06/05 00:33:04;;;;;;;8.38;3.38;;;13.80;66.20;;;;;;4999854;28;20046;-87
2023/06/05 00:35:31;;;;;;;9.13;3.22;;;13.70;66.10;;;;;;4999628;28;20043;-87
2023/06/05 00:37:58;;;;;;;7.73;3.10;;;13.50;66.10;;;;;;4999502;28;20054;-87
2023/06/05 00:40:26;;;;;;;8.70;3.58;;;13.50;66.20;;;;;;5008847;28;20058;-87
2023/06/05 00:42:53;;;;;;;6.90;2.97;;;13.50;66.50;;;;;;4999420;28;20053;-87
2023/06/05 00:45:20;;;;;;;8.27;3.47;;;13.50;66.60;;;;;;4999374;28;20049;-87
2023/06/05 00:47:47;;;;;;;11.82;3.70;;;13.50;66.40;;;;;;4999868;28;20404;-87
2023/06/05 00:50:15;;;;;;;9.07;3.00;;;13.50;66.30;;;;;;4999273;28;20142;-87
2023/06/05 00:52:42;;;;;;;9.35;3.60;;;13.50;66.20;;;;;;4983101;28;20049;-87
2023/06/05 00:55:11;;;;;;;8.35;3.30;;;13.50;66.20;;;;;;4998531;28;20555;-87
2023/06/05 00:57:39;;;;;;;8.90;3.25;;;13.50;65.90;;;;;;4999130;28;20046;-87
2023/06/05 01:00:10;;;;;;;8.80;3.42;;;13.50;65.80;;;;;;4998990;28;20463;-87
2023/06/05 01:02:39;;;;;;;6.97;3.00;;;13.50;65.90;;;;;;4999045;28;20042;-87
2023/06/05 01:05:08;;;;;;;8.02;2.95;;;13.50;66.20;;;;;;4998004;28;20044;-87
2023/06/05 01:07:39;;;;;;;7.70;3.05;;;13.50;65.90;;;;;;4999140;28;20519;-87
2023/06/05 01:10:08;;;;;;;8.05;3.53;;;13.50;65.90;;;;;;4982738;28;20042;-87
2023/06/05 01:12:43;;;;;;;8.18;3.30;;;13.50;65.90;;;;;;4982705;28;20492;-88
2023/06/05 01:15:11;;;;;;;8.63;3.43;;;13.50;66.10;;;;;;4998930;28;20049;-87
2023/06/05 01:17:39;;;;;;;8.25;3.58;;;13.50;66.30;;;;;;4982855;28;20041;-87
2023/06/05 01:20:09;;;;;;;8.77;3.75;;;13.50;66.30;;;;;;4982806;28;20411;-88
2023/06/05 01:22:37;;;;;;;7.53;3.30;;;13.50;66.50;;;;;;4968765;28;20150;-87
2023/06/05 01:25:09;;;;;;;7.75;3.30;;;13.50;66.40;;;;;;4988239;28;20452;-87
2023/06/05 01:27:52;;;;;;;6.47;2.97;;;13.40;66.60;;;;;;4982836;28;20137;-88
2023/06/05 01:30:34;;;;;;;6.80;2.92;;;13.40;66.40;;;;;;4998873;28;20049;-88
2023/06/05 01:33:21;;;;;;;145.43;9.88;;;13.40;66.80;;;;;;4982994;28;20052;-88
2023/06/05 01:35:51;;;;;;;14.32;3.50;;;13.40;66.50;;;;;;4982663;28;20050;-88
2023/06/05 01:38:19;;;;;;;9.73;3.20;;;13.30;66.60;;;;;;4997670;28;20052;-88
2023/06/05 01:40:49;;;;;;;6.30;3.40;;;13.20;66.90;;;;;;4991884;28;20385;-88
2023/06/05 01:43:18;;;;;;;9.00;3.53;;;13.10;67.20;;;;;;4998599;28;20049;-88
2023/06/05 01:45:46;;;;;;;8.10;3.30;;;13.10;67.30;;;;;;4982743;28;20144;-88
2023/06/05 01:48:14;;;;;;;8.07;3.13;;;13.10;67.10;;;;;;4995180;28;20065;-88
2023/06/05 01:50:42;;;;;;;7.20;3.55;;;13.10;67.00;;;;;;4995125;28;20042;-88
2023/06/05 01:53:11;;;;;;;7.93;3.77;;;13.20;67.20;;;;;;4978882;28;20393;-88
2023/06/05 01:55:41;;;;;;;7.25;3.08;;;13.20;67.00;;;;;;4978809;28;20050;-88
2023/06/05 01:58:08;;;;;;;8.90;3.72;;;13.20;67.20;;;;;;4982025;28;20100;-87
2023/06/05 02:03:53;;;;;;;7.20;3.25;;;13.20;67.30;;;;;;4882298;24;20068;-94
2023/06/05 02:06:20;;;;;;;8.37;3.10;;;13.30;67.50;;;;;;4856861;29;20043;-93
2023/06/05 02:08:48;;;;;;;7.20;3.08;;;13.30;66.90;;;;;;4850784;29;20056;-93
2023/06/05 02:11:15;;;;;;;8.18;3.13;;;13.30;67.20;;;;;;4839113;29;20080;-93
2023/06/05 02:13:43;;;;;;;7.47;3.08;;;13.40;67.40;;;;;;4857031;29;20088;-94
2023/06/05 02:16:11;;;;;;;6.30;3.03;;;13.50;67.20;;;;;;4833432;29;20106;-94
2023/06/05 02:18:38;;;;;;;6.67;3.17;;;13.50;67.00;;;;;;4854265;29;20056;-94
2023/06/05 02:21:05;;;;;;;8.48;3.17;;;13.40;67.70;;;;;;4850612;29;20568;-94
2023/06/05 02:23:33;;;;;;;7.68;3.60;;;13.50;67.60;;;;;;4850581;29;20396;-94
2023/06/05 02:26:00;;;;;;;8.45;3.10;;;13.50;67.00;;;;;;4865779;29;20045;-93
2023/06/05 02:28:28;;;;;;;7.15;3.22;;;13.50;67.60;;;;;;4850591;29;20049;-94
2023/06/05 02:30:55;;;;;;;7.90;3.70;;;13.50;67.80;;;;;;4850569;29;20065;-94
2023/06/05 02:33:23;;;;;;;7.07;2.78;;;13.50;67.70;;;;;;4830128;29;20054;-94
2023/06/05 02:35:51;;;;;;;7.88;3.00;;;13.40;67.60;;;;;;4828884;29;20050;-94
2023/06/05 02:38:19;;;;;;;7.32;3.63;;;13.40;67.60;;;;;;4813712;29;20110;-94
2023/06/05 02:40:47;;;;;;;8.80;3.80;;;13.40;67.90;;;;;;4829047;29;20054;-94
2023/06/05 02:43:14;;;;;;;8.20;3.00;;;13.40;67.90;;;;;;4828825;29;20531;-95
2023/06/05 02:45:41;;;;;;;7.50;3.33;;;13.30;68.30;;;;;;4828757;29;20122;-94
2023/06/05 02:48:08;;;;;;;8.43;3.50;;;13.40;68.20;;;;;;4813603;29;20046;-94
2023/06/05 02:50:36;;;;;;;7.68;3.60;;;13.40;68.00;;;;;;4828851;29;20412;-94
2023/06/05 02:53:06;;;;;;;7.82;3.25;;;13.40;67.80;;;;;;4829127;29;20555;-93
2023/06/05 02:55:36;;;;;;;7.57;2.93;;;13.40;67.90;;;;;;4820586;29;20061;-94
2023/06/05 02:58:08;;;;;;;7.05;3.13;;;13.30;67.80;;;;;;4832456;29;20053;-93
2023/06/05 03:00:44;;;;;;;10.32;3.65;;;13.40;67.90;;;;;;4846820;29;20059;-93
2023/06/05 03:03:12;;;;;;;7.60;3.10;;;13.40;67.90;;;;;;4846328;29;20080;-94
2023/06/05 03:05:40;;;;;;;7.78;3.17;;;13.40;67.70;;;;;;4846430;29;20106;-94
2023/06/05 03:08:11;;;;;;;7.37;3.20;;;13.40;67.70;;;;;;4846741;29;20579;-94
2023/06/05 03:10:38;;;;;;;6.43;3.00;;;13.30;67.60;;;;;;4846445;29;20049;-94
2023/06/05 03:13:07;;;;;;;8.32;3.38;;;13.20;68.00;;;;;;4846370;29;20049;-94
2023/06/05 03:15:36;;;;;;;9.00;3.35;;;13.30;68.20;;;;;;4846506;29;20546;-94
2023/06/05 03:18:05;;;;;;;8.57;3.20;;;13.30;68.30;;;;;;4846383;29;20054;-94
2023/06/05 03:20:34;;;;;;;7.43;3.07;;;13.30;68.10;;;;;;4846627;29;20049;-94
2023/06/05 03:23:01;;;;;;;7.50;3.35;;;13.30;67.90;;;;;;4844038;29;20045;-94
2023/06/05 03:25:29;;;;;;;6.85;3.22;;;13.30;68.10;;;;;;4849563;29;20053;-94
2023/06/05 03:27:57;;;;;;;7.60;3.03;;;13.30;67.90;;;;;;4849388;29;20044;-94
2023/06/05 03:30:27;;;;;;;8.18;3.33;;;13.40;67.50;;;;;;4848806;29;20072;-94
2023/06/05 03:32:57;;;;;;;7.87;3.03;;;13.50;67.50;;;;;;4849968;29;20053;-94
2023/06/05 03:35:26;;;;;;;6.78;2.85;;;13.40;67.40;;;;;;4849351;29;20079;-94
2023/06/05 03:37:55;;;;;;;6.53;3.25;;;13.40;67.60;;;;;;4849814;29;20108;-94
2023/06/05 03:40:23;;;;;;;7.88;3.00;;;13.50;67.50;;;;;;4849271;29;20053;-94
2023/06/05 03:42:51;;;;;;;10.93;3.38;;;13.50;66.90;;;;;;4849619;29;20045;-94
2023/06/05 03:45:18;;;;;;;8.53;3.03;;;13.50;66.60;;;;;;4849296;29;20060;-94
2023/06/05 03:47:48;;;;;;;7.38;3.10;;;13.60;67.50;;;;;;4849371;29;20052;-94
2023/06/05 03:50:19;;;;;;;6.78;3.15;;;13.60;67.50;;;;;;4849756;29;20055;-94
2023/06/05 03:52:52;;;;;;;6.82;3.00;;;13.60;67.40;;;;;;4849388;29;20048;-94
2023/06/05 03:55:20;;;;;;;9.45;2.90;;;13.70;67.00;;;;;;4849270;29;20053;-93
2023/06/05 03:57:48;;;;;;;7.90;3.03;;;13.70;67.10;;;;;;4864540;29;20049;-94
2023/06/05 04:00:16;;;;;;;8.25;2.85;;;13.80;66.80;;;;;;4849358;29;20143;-95
2023/06/05 04:02:54;;;;;;;8.93;3.67;;;13.90;66.50;;;;;;4864217;29;20590;-94
2023/06/05 04:05:21;;;;;;;7.18;2.90;;;13.90;66.90;;;;;;4849308;29;20503;-95
2023/06/05 04:07:49;;;;;;;6.35;2.80;;;14.10;67.00;;;;;;4849330;29;20045;-94
2023/06/05 04:10:17;;;;;;;8.97;2.87;;;14.20;67.50;;;;;;4849554;29;20113;-94
2023/06/05 04:12:44;;;;;;;7.05;3.30;;;14.30;67.40;;;;;;4864496;29;20078;-94
2023/06/05 04:15:11;;;;;;;7.28;2.90;;;14.50;67.30;;;;;;4849510;29;20049;-95
2023/06/05 04:17:40;;;;;;;6.85;2.95;;;14.50;67.70;;;;;;4849732;29;20045;-94
2023/06/05 04:20:14;;;;;;;7.75;3.45;;;14.70;67.30;;;;;;4849734;29;20068;-94
2023/06/05 04:22:43;;;;;;;6.90;2.87;;;14.80;66.60;;;;;;4849568;29;20071;-95
2023/06/05 04:25:12;;;;;;;7.80;2.70;;;14.90;66.00;;;;;;4849066;29;20049;-94
2023/06/05 04:27:42;;;;;;;8.52;3.25;;;15.00;65.40;;;;;;4849154;29;20081;-94
2023/06/05 04:30:11;;;;;;;6.93;2.83;;;15.10;64.70;;;;;;4849086;29;20554;-95
2023/06/05 04:32:39;;;;;;;9.25;3.75;;;15.20;63.60;;;;;;4850027;29;20045;-95
2023/06/05 04:35:08;;;;;;;7.73;3.17;;;15.50;63.70;;;;;;4850950;29;20077;-94
2023/06/05 04:37:36;;;;;;;6.80;3.65;;;15.50;63.20;;;;;;4851819;29;20049;-95
2023/06/05 04:40:05;;;;;;;7.22;3.67;;;15.50;64.50;;;;;;4852483;29;20056;-95
2023/06/05 04:42:33;;;;;;;8.90;3.92;;;15.70;64.70;;;;;;4856862;29;20037;-94
2023/06/05 04:45:07;;;;;;;8.25;3.30;;;15.80;64.70;;;;;;4863385;29;20049;-95
2023/06/05 04:52:06;;;;;;;7.25;3.35;;;16.40;66.30;;;;;;4882908;29;20037;-95
2023/06/05 04:54:39;;;;;;;6.85;3.47;;;16.70;63.50;;;;;;4868373;29;20117;-94
2023/06/05 04:57:25;;;;;;;7.13;3.05;;;16.70;63.60;;;;;;4868943;29;20144;-95
2023/06/05 05:00:00;;;;;;;7.15;3.40;;;16.80;64.20;;;;;;4882932;29;20049;-94
2023/06/05 05:02:39;;;;;;;8.77;3.17;;;16.80;64.40;;;;;;4864281;29;20049;-96
2023/06/05 05:05:14;;;;;;;7.63;3.00;;;16.90;64.70;;;;;;4850907;29;20405;-95
2023/06/05 05:07:44;;;;;;;5.85;2.85;;;17.00;64.50;;;;;;4836572;29;20073;-94
2023/06/05 05:10:13;;;;;;;7.07;3.17;;;17.10;63.70;;;;;;4836273;29;20503;-94
2023/06/05 05:12:40;;;;;;;7.43;3.25;;;17.20;63.80;;;;;;4833720;29;20049;-94
2023/06/05 05:15:08;;;;;;;6.93;2.87;;;17.50;64.20;;;;;;4832960;29;20045;-95
2023/06/05 05:17:38;;;;;;;7.70;2.92;;;17.50;64.20;;;;;;4833756;29;20053;-94
2023/06/05 05:20:08;;;;;;;5.90;2.60;;;17.50;63.70;;;;;;4834333;29;20128;-94
2023/06/05 05:22:38;;;;;;;7.30;2.85;;;17.60;62.40;;;;;;4833583;29;20045;-95
2023/06/05 05:25:06;;;;;;;13.15;3.30;;;17.70;62.40;;;;;;4833519;29;20049;-95
2023/06/05 05:27:33;;;;;;;8.20;3.00;;;17.80;62.70;;;;;;4834814;29;20042;-95
2023/06/05 05:30:01;;;;;;;7.28;2.60;;;17.90;62.60;;;;;;4834807;29;20482;-95
2023/06/05 05:32:29;;;;;;;5.60;2.85;;;18.00;61.40;;;;;;4833663;29;20050;-94
2023/06/05 05:34:56;;;;;;;5.70;2.50;;;18.20;60.80;;;;;;4833402;29;20507;-94
2023/06/05 05:37:25;;;;;;;9.13;2.55;;;18.40;58.30;;;;;;4833419;29;20049;-92
2023/06/05 05:39:52;;;;;;;7.33;2.57;;;18.50;56.60;;;;;;4832412;29;20428;-93
2023/06/05 05:42:20;;;;;;;6.07;2.40;;;18.60;57.30;;;;;;4832194;29;20158;-92
2023/06/05 05:44:47;;;;;;;7.13;2.58;;;18.70;55.20;;;;;;4832182;29;20046;-92
2023/06/05 05:47:14;;;;;;;6.25;2.38;;;18.80;53.40;;;;;;4832094;29;20053;-92
2023/06/05 05:49:42;;;;;;;6.15;2.72;;;19.00;54.40;;;;;;4831820;29;20149;-92
2023/06/05 05:52:09;;;;;;;6.50;2.80;;;19.10;52.70;;;;;;4831894;29;20073;-91
2023/06/05 05:54:37;;;;;;;6.78;2.20;;;19.20;52.10;;;;;;4831764;29;20041;-91
2023/06/05 05:57:04;;;;;;;5.50;2.42;;;19.30;53.30;;;;;;4831891;29;20061;-92
2023/06/05 05:59:31;;;;;;;8.05;2.30;;;19.40;50.60;;;;;;4847501;29;20097;-92
2023/06/05 06:02:00;;;;;;;5.82;2.40;;;19.60;51.60;;;;;;4831923;29;20080;-92
2023/06/05 06:04:29;;;;;;;6.53;2.70;;;19.70;52.40;;;;;;4844688;29;20053;-90
2023/06/05 06:06:56;;;;;;;7.15;2.45;;;19.90;51.50;;;;;;4851418;29;20059;-90
2023/06/05 06:09:24;;;;;;;7.38;2.50;;;20.10;50.30;;;;;;4846472;29;20045;-88
2023/06/05 06:11:55;;;;;;;5.97;2.50;;;20.30;51.20;;;;;;4846473;29;20468;-89
2023/06/05 06:14:23;;;;;;;6.22;2.20;;;20.40;49.10;;;;;;4838181;29;20049;-90
2023/06/05 06:16:50;;;;;;;6.50;2.30;;;20.60;48.70;;;;;;4840317;29;20523;-89
2023/06/05 06:19:23;;;;;;;7.28;2.60;;;20.70;49.00;;;;;;4848998;29;20072;-89
2023/06/05 06:21:51;;;;;;;6.50;2.50;;;20.90;50.00;;;;;;4832801;29;20137;-89
2023/06/05 06:24:22;;;;;;;5.93;2.00;;;20.90;46.80;;;;;;4851331;29;20041;-89
2023/06/05 06:26:49;;;;;;;6.18;2.20;;;21.00;46.40;;;;;;4850313;29;20049;-89
2023/06/05 06:29:20;;;;;;;6.23;2.20;;;21.10;46.20;;;;;;4835489;29;20093;-89
2023/06/05 06:31:49;;;;;;;5.55;2.40;;;21.40;46.10;;;;;;4832636;29;20132;-88
2023/06/05 06:34:16;;;;;;;6.28;3.00;;;21.50;46.20;;;;;;4831777;29;20052;-90
2023/06/05 06:36:43;;;;;;;6.55;2.88;;;21.50;46.20;;;;;;4833399;29;20057;-89
2023/06/05 06:39:11;;;;;;;5.70;2.42;;;21.50;46.80;;;;;;4855810;29;20462;-89
2023/06/05 06:41:39;;;;;;;8.33;2.60;;;21.50;47.70;;;;;;4838689;29;20403;-89
2023/06/05 06:44:06;;;;;;;8.07;2.80;;;21.50;49.50;;;;;;4842798;29;20133;-90
2023/06/05 06:46:33;;;;;;;8.30;2.65;;;21.50;47.80;;;;;;4831978;29;20093;-91
2023/06/05 06:49:00;;;;;;;8.68;2.85;;;21.60;49.40;;;;;;4854924;29;20140;-91
2023/06/05 06:51:28;;;;;;;6.78;2.50;;;21.70;50.10;;;;;;4837290;29;20049;-91
2023/06/05 07:05:28;;;;;;;6.68;2.80;;;21.80;46.10;;;;;;4879838;24;20132;-92
2023/06/05 07:09:57;;;;;;;5.95;2.58;;;21.80;48.80;;;;;;4853759;29;20065;-92
2023/06/05 07:13:26;;;;;;;5.27;2.50;;;21.80;47.20;;;;;;4845598;29;20038;-93
2023/06/05 07:16:56;;;;;;;7.30;2.95;;;21.60;46.50;;;;;;4832451;29;20053;-92
2023/06/05 07:20:15;;;;;;;7.68;2.85;;;21.70;47.10;;;;;;4805504;29;20598;-91
2023/06/05 07:22:48;;;;;;;6.88;2.60;;;21.80;48.50;;;;;;4807037;29;20074;-90
2023/06/05 07:25:16;;;;;;;5.00;2.65;;;22.00;48.20;;;;;;4808579;29;20057;-91
2023/06/05 07:27:44;;;;;;;6.27;2.77;;;22.10;48.50;;;;;;4793579;29;20043;-91
2023/06/05 07:30:12;;;;;;;8.30;2.53;;;22.30;47.10;;;;;;4809072;29;20455;-93
2023/06/05 07:32:42;;;;;;;6.72;2.80;;;22.50;46.70;;;;;;4808983;29;20074;-93
2023/06/05 07:35:10;;;;;;;6.22;2.65;;;22.60;46.50;;;;;;4823666;29;20062;-93
2023/06/05 07:37:38;;;;;;;7.03;2.83;;;22.80;45.50;;;;;;4808513;29;20152;-93
2023/06/05 07:40:06;;;;;;;6.93;2.93;;;22.70;46.50;;;;;;4808798;29;20057;-94
2023/06/05 07:42:34;;;;;;;9.23;3.17;;;22.80;46.30;;;;;;4808236;29;20149;-94
2023/06/05 07:45:05;;;;;;;6.78;2.75;;;22.80;46.90;;;;;;4850014;29;20045;-93
2023/06/05 07:47:33;;;;;;;7.32;2.70;;;23.00;46.10;;;;;;4867190;29;20051;-93
2023/06/05 07:50:03;;;;;;;7.03;3.55;;;23.00;45.60;;;;;;4883028;29;20140;-94
2023/06/05 07:52:31;;;;;;;9.43;3.20;;;23.00;46.10;;;;;;4883005;29;20049;-94
2023/06/05 07:54:59;;;;;;;7.57;2.95;;;22.70;46.00;;;;;;4882860;29;20056;-93
2023/06/05 07:57:27;;;;;;;9.90;3.50;;;22.60;46.80;;;;;;4882891;29;20073;-93
2023/06/05 07:59:54;;;;;;;7.18;3.00;;;22.50;46.40;;;;;;4867240;29;20052;-94
2023/06/05 08:02:23;;;;;;;8.27;3.10;;;22.50;46.30;;;;;;4867462;29;20059;-93
2023/06/05 08:04:51;;;;;;;7.47;3.20;;;22.60;46.90;;;;;;4882540;29;20041;-93
2023/06/05 08:07:18;;;;;;;7.88;3.15;;;22.70;46.00;;;;;;4866981;29;20143;-94
2023/06/05 08:09:45;;;;;;;8.27;3.78;;;22.80;46.10;;;;;;4882692;29;20415;-93
2023/06/05 08:12:13;;;;;;;10.07;3.63;;;22.80;47.50;;;;;;4882396;29;20049;-93
2023/06/05 08:14:40;;;;;;;10.38;4.07;;;22.60;47.80;;;;;;4883501;29;20503;-93
2023/06/05 08:17:07;;;;;;;8.70;3.97;;;22.70;48.00;;;;;;4886288;29;20140;-93
2023/06/05 08:19:35;;;;;;;9.13;3.83;;;22.80;46.80;;;;;;4884167;29;20056;-93
2023/06/05 08:22:05;;;;;;;11.15;4.07;;;23.00;47.40;;;;;;4852527;29;20113;-93
2023/06/05 08:24:32;;;;;;;7.47;3.70;;;23.20;45.80;;;;;;4876557;29;20068;-94
2023/06/05 08:27:00;;;;;;;7.38;3.42;;;23.30;45.80;;;;;;4875578;29;20053;-94
2023/06/05 08:29:35;;;;;;;10.03;3.20;;;23.30;46.10;;;;;;4850027;29;20071;-94
2023/06/05 08:32:06;;;;;;;8.13;2.75;;;23.40;46.50;;;;;;4849165;29;20045;-94
2023/06/05 08:35:30;;;;;;;7.30;3.60;;;23.30;44.90;;;;;;4845326;29;20116;-94
2023/06/05 08:37:58;;;;;;;8.00;3.47;;;23.30;47.70;;;;;;4883238;29;20578;-93
2023/06/05 08:40:28;;;;;;;9.00;3.80;;;23.50;47.40;;;;;;4852397;29;20100;-93
2023/06/05 08:42:56;;;;;;;10.07;3.80;;;23.50;46.50;;;;;;4851705;29;20057;-93
2023/06/05 08:45:23;;;;;;;9.35;3.70;;;23.40;46.40;;;;;;4868295;29;20049;-94
2023/06/05 08:47:52;;;;;;;8.48;3.30;;;23.30;45.50;;;;;;4870881;29;20045;-93
2023/06/05 08:50:19;;;;;;;9.35;3.53;;;23.40;45.60;;;;;;4867926;29;20052;-95
2023/06/05 08:52:49;;;;;;;9.13;4.10;;;23.50;45.50;;;;;;4866996;29;20563;-94
2023/06/05 08:55:17;;;;;;;8.13;3.70;;;23.70;45.20;;;;;;4852408;29;20499;-95
2023/06/05 08:57:44;;;;;;;9.60;3.88;;;23.90;44.40;;;;;;4867638;29;20056;-96
2023/06/05 09:00:14;;;;;;;8.45;3.97;;;24.00;44.10;;;;;;4866470;29;20049;-95
2023/06/05 09:02:43;;;;;;;9.30;4.10;;;24.00;45.20;;;;;;4851588;29;20053;-95
2023/06/05 09:05:12;;;;;;;10.20;4.13;;;24.10;45.70;;;;;;4866403;29;20073;-95
2023/06/05 09:07:40;;;;;;;6.53;3.03;;;24.30;46.80;;;;;;4851779;29;20076;-96
2023/06/05 09:10:25;;;;;;;7.95;2.97;;;24.70;46.10;;;;;;4866979;29;20049;-95
2023/06/05 09:13:00;;;;;;;6.47;3.40;;;25.00;44.70;;;;;;4851518;29;20525;-96
2023/06/05 09:15:32;;;;;;;7.05;2.88;;;25.10;43.90;;;;;;4866591;29;20052;-95
2023/06/05 09:18:14;;;;;;;7.07;3.38;;;25.20;43.40;;;;;;4866702;29;20077;-95
2023/06/05 09:20:50;;;;;;;7.70;3.10;;;25.30;42.90;;;;;;4851258;29;20067;-95
2023/06/05 09:23:35;;;;;;;5.80;3.25;;;25.30;43.80;;;;;;4866249;29;20595;-96
2023/06/05 09:26:09;;;;;;;7.35;3.70;;;25.50;43.00;;;;;;4866490;29;20045;-95
2023/06/05 09:28:36;;;;;;;7.50;3.85;;;25.60;44.20;;;;;;4866486;29;20454;-96
2023/06/05 09:31:04;;;;;;;9.15;3.45;;;25.60;44.30;;;;;;4866586;29;20498;-95
2023/06/05 09:33:37;;;;;;;7.20;3.10;;;25.50;44.50;;;;;;4866962;29;20053;-96
2023/06/05 09:36:12;;;;;;;7.97;3.28;;;25.30;44.50;;;;;;4851914;29;20059;-96
2023/06/05 09:38:41;;;;;;;7.50;3.40;;;25.10;45.70;;;;;;4866923;29;20529;-95
2023/06/05 09:41:10;;;;;;;9.60;3.50;;;25.00;46.10;;;;;;4866426;29;20064;-95
2023/06/05 09:43:38;;;;;;;6.80;2.92;;;24.80;46.50;;;;;;4866205;29;20045;-95
2023/06/05 09:46:11;;;;;;;5.97;2.93;;;24.60;46.30;;;;;;4850954;29;20514;-96
2023/06/05 09:48:40;;;;;;;7.70;3.53;;;24.50;46.30;;;;;;4866665;29;20579;-95
2023/06/05 09:51:12;;;;;;;7.68;3.85;;;24.60;48.20;;;;;;4866577;29;20040;-95
2023/06/05 09:53:46;;;;;;;6.13;3.13;;;24.80;48.00;;;;;;4866890;29;20239;-96
2023/06/05 09:56:18;;;;;;;7.30;3.70;;;25.00;46.40;;;;;;4851196;29;20512;-95
2023/06/05 09:58:47;;;;;;;8.53;3.60;;;25.00;47.00;;;;;;4866256;29;20060;-94
2023/06/05 10:01:22;;;;;;;8.50;3.20;;;25.00;49.20;;;;;;4851006;29;20077;-96
2023/06/05 10:04:07;;;;;;;8.98;3.20;;;24.90;47.20;;;;;;4865716;29;20049;-95
2023/06/05 10:06:37;;;;;;;7.13;3.20;;;24.80;47.40;;;;;;4865628;29;20053;-95
2023/06/05 10:09:07;;;;;;;7.82;3.17;;;24.80;48.20;;;;;;4865862;29;20049;-96
2023/06/05 10:11:34;;;;;;;8.03;3.50;;;24.70;47.80;;;;;;4865675;29;20055;-96
2023/06/05 10:14:06;;;;;;;7.75;3.40;;;24.70;48.40;;;;;;4865439;29;20087;-95
2023/06/05 10:16:34;;;;;;;7.65;3.33;;;24.70;48.60;;;;;;4850277;29;20503;-95
2023/06/05 10:19:04;;;;;;;6.75;3.28;;;24.60;49.30;;;;;;4865307;29;20049;-96
2023/06/05 10:21:32;;;;;;;6.93;3.58;;;24.60;50.00;;;;;;4865505;29;20061;-94
2023/06/05 10:24:11;;;;;;;8.03;3.27;;;24.60;50.40;;;;;;4850119;29;20104;-94
2023/06/05 10:27:03;;;;;;;7.45;3.40;;;24.60;49.70;;;;;;4865692;29;20097;-95
2023/06/05 10:29:55;;;;;;;7.18;3.03;;;24.60;50.10;;;;;;4849973;29;20041;-95
2023/06/05 10:32:28;;;;;;;6.43;3.20;;;24.50;49.30;;;;;;4850263;29;20053;-95
2023/06/05 10:35:34;;;;;;;7.18;2.97;;;24.40;48.90;;;;;;4865974;29;20053;-95
2023/06/05 10:38:17;;;;;;;8.67;3.20;;;24.50;50.00;;;;;;4849694;29;20091;-96
2023/06/05 10:40:55;;;;;;;6.28;3.10;;;24.50;49.90;;;;;;4843743;29;20053;-95
2023/06/05 10:43:26;;;;;;;7.03;3.28;;;24.50;48.30;;;;;;4866128;29;20412;-95
2023/06/05 10:45:55;;;;;;;8.73;3.30;;;24.50;49.60;;;;;;4866057;29;20139;-95
2023/06/05 10:49:08;;;;;;;6.20;3.28;;;24.60;50.10;;;;;;4865896;29;20056;-95
2023/06/05 10:51:42;;;;;;;6.50;3.47;;;24.60;50.20;;;;;;4866571;29;20049;-95
2023/06/05 10:54:23;;;;;;;8.30;3.60;;;24.60;49.60;;;;;;4850404;29;20079;-95
2023/06/05 10:57:06;;;;;;;7.85;3.25;;;24.70;50.20;;;;;;4866262;29;20059;-96
2023/06/05 10:59:36;;;;;;;7.28;3.20;;;24.90;49.10;;;;;;4851164;29;20060;-96
2023/06/05 11:02:08;;;;;;;6.32;2.80;;;24.80;49.20;;;;;;4866507;29;20124;-95
2023/06/05 11:04:48;;;;;;;7.57;3.10;;;24.90;48.50;;;;;;4865067;29;20049;-95
2023/06/05 11:07:26;;;;;;;8.15;3.17;;;24.70;48.70;;;;;;4849477;29;20113;-95
2023/06/05 11:10:05;;;;;;;6.80;2.88;;;24.60;48.80;;;;;;4864894;29;20041;-96
2023/06/05 11:12:39;;;;;;;7.88;3.50;;;24.30;49.60;;;;;;4849488;29;20503;-96
2023/06/05 11:15:11;;;;;;;7.43;3.38;;;24.30;50.50;;;;;;4849496;29;20044;-95
2023/06/05 11:17:42;;;;;;;7.10;3.00;;;24.40;50.80;;;;;;4849700;29;20045;-95
2023/06/05 11:20:32;;;;;;;6.68;3.30;;;24.50;50.40;;;;;;4849747;29;20045;-95
2023/06/05 11:23:00;;;;;;;7.38;3.58;;;24.50;50.70;;;;;;4851393;29;20430;-95
2023/06/05 11:25:32;;;;;;;9.35;3.97;;;24.50;49.10;;;;;;4849567;29;20101;-95
2023/06/05 11:28:07;;;;;;;9.30;3.35;;;24.30;49.20;;;;;;4864583;29;20051;-95
2023/06/05 11:30:43;;;;;;;6.27;3.30;;;24.20;49.90;;;;;;4849120;29;20087;-95
2023/06/05 11:33:17;;;;;;;7.60;3.60;;;24.10;49.00;;;;;;4864556;29;20045;-95
2023/06/05 11:35:48;;;;;;;7.13;3.10;;;24.00;48.90;;;;;;4842019;29;20230;-95
2023/06/05 11:38:17;;;;;;;9.30;3.45;;;23.80;48.90;;;;;;4864675;29;20056;-96
2023/06/05 11:40:49;;;;;;;6.65;3.30;;;23.70;49.80;;;;;;4864362;29;20109;-95
2023/06/05 11:43:17;;;;;;;8.77;3.40;;;23.50;50.90;;;;;;4849326;29;20057;-96
2023/06/05 11:45:58;;;;;;;10.40;2.78;;;23.40;50.60;;;;;;4864264;29;20588;-95
2023/06/05 11:48:27;;;;;;;6.60;3.10;;;23.30;50.90;;;;;;4863912;29;20049;-96
2023/06/05 11:51:08;;;;;;;7.43;3.33;;;23.30;50.90;;;;;;4864180;29;20084;-95
2023/06/05 11:53:37;;;;;;;7.20;3.15;;;23.20;51.60;;;;;;4864400;29;20503;-96
2023/06/05 11:56:15;;;;;;;10.23;3.53;;;23.10;50.80;;;;;;4864208;29;20056;-95
2023/06/05 11:58:43;;;;;;;5.63;2.97;;;23.00;51.70;;;;;;4849353;29;20057;-96
2023/06/05 12:01:24;;;;;;;7.22;2.92;;;23.00;51.60;;;;;;4864210;29;20419;-94
2023/06/05 12:04:06;;;;;;;7.00;3.50;;;23.00;52.00;;;;;;4864224;29;20049;-95
2023/06/05 12:06:43;;;;;;;7.25;3.60;;;22.90;53.10;;;;;;4849656;29;20140;-95
2023/06/05 12:09:11;;;;;;;7.87;3.80;;;22.90;53.10;;;;;;4865257;29;20053;-95
2023/06/05 12:11:39;;;;;;;10.68;4.03;;;23.00;52.80;;;;;;4849990;29;20069;-95
2023/06/05 12:14:06;;;;;;;7.90;3.65;;;23.00;52.50;;;;;;4865232;29;20053;-95
2023/06/05 12:16:44;;;;;;;8.98;3.83;;;23.00;53.50;;;;;;4865890;29;20069;-95
2023/06/05 12:19:16;;;;;;;8.63;3.55;;;23.10;53.90;;;;;;4851163;29;20144;-95
2023/06/05 12:21:46;;;;;;;8.00;3.50;;;23.10;53.40;;;;;;4866373;29;20052;-95
2023/06/05 12:24:14;;;;;;;6.70;3.05;;;23.00;53.10;;;;;;4865121;29;20511;-95
2023/06/05 12:26:55;;;;;;;7.25;3.38;;;23.10;52.50;;;;;;4849267;29;20045;-95
2023/06/05 12:29:31;;;;;;;6.80;3.28;;;23.10;52.70;;;;;;4863842;29;20049;-95
2023/06/05 12:32:00;;;;;;;7.03;3.83;;;23.10;52.80;;;;;;4864574;29;20045;-95
2023/06/05 12:34:44;;;;;;;6.90;3.17;;;23.30;53.90;;;;;;4848804;29;20526;-95
2023/06/05 12:37:32;;;;;;;11.85;3.38;;;23.30;53.00;;;;;;4863895;29;20449;-94
2023/06/05 12:40:01;;;;;;;7.22;3.15;;;23.30;52.10;;;;;;4848654;29;20080;-95
2023/06/05 12:42:37;;;;;;;5.93;2.67;;;23.10;50.90;;;;;;4863869;29;20414;-95
2023/06/05 12:45:06;;;;;;;7.97;3.25;;;23.10;51.40;;;;;;4863790;29;20049;-94
2023/06/05 12:47:34;;;;;;;9.47;3.70;;;23.00;50.70;;;;;;4864103;29;20053;-95
2023/06/05 12:50:03;;;;;;;10.30;3.55;;;23.10;51.90;;;;;;4848937;29;20045;-95
2023/06/05 12:52:31;;;;;;;7.65;3.35;;;23.10;51.60;;;;;;4864143;29;20049;-95
2023/06/05 12:54:59;;;;;;;6.75;3.13;;;23.20;52.30;;;;;;4848967;29;20384;-95
2023/06/05 12:57:26;;;;;;;6.80;3.00;;;23.20;52.80;;;;;;4849909;29;20053;-95
2023/06/05 12:59:55;;;;;;;7.07;2.90;;;23.20;50.10;;;;;;4867053;29;20056;-95
2023/06/05 13:02:23;;;;;;;7.90;3.00;;;23.20;50.80;;;;;;4871973;29;20086;-95
2023/06/05 13:04:51;;;;;;;6.13;3.05;;;23.20;51.30;;;;;;4859844;29;20049;-96
2023/06/05 13:07:21;;;;;;;8.30;3.78;;;23.20;51.30;;;;;;4872764;29;20522;-96
2023/06/05 13:09:51;;;;;;;8.32;3.90;;;23.10;50.40;;;;;;4858282;29;20053;-96
2023/06/05 13:12:19;;;;;;;7.90;3.10;;;23.00;51.30;;;;;;4857447;29;20037;-96
2023/06/05 13:14:47;;;;;;;8.50;3.70;;;23.00;51.00;;;;;;4867379;29;20467;-95
2023/06/05 13:17:14;;;;;;;8.15;3.10;;;22.90;50.50;;;;;;4866363;29;20104;-95
2023/06/05 13:19:41;;;;;;;7.38;3.10;;;23.00;50.70;;;;;;4866668;29;20060;-95
2023/06/05 13:22:08;;;;;;;7.45;2.95;;;23.00;51.40;;;;;;4866505;29;20045;-95
2023/06/05 13:24:36;;;;;;;6.67;3.07;;;23.10;51.20;;;;;;4866482;29;20453;-95
2023/06/05 13:27:03;;;;;;;8.10;3.65;;;23.00;50.00;;;;;;4866519;29;20049;-95